Time;durP1;ratioP1;P1;durP2;ratioP2;P2;SDS_P1;SDS_P2;PMS_P1;PMS_P2;Temp;Humidity;BMP_temperature;BMP_pressure;BME280_temperature;BME280_humidity;BME280_pressure;Samples;Min_cycle;Max_cycle;Signal;HPM_P1;HPM_P2
2021/11/04 00:01:46;;;;;;;3.95;2.53;;;;;;;9.46;67.37;95701.06;4992976;28;20036;-80
2021/11/04 00:04:12;;;;;;;3.05;2.30;;;;;;;9.49;67.78;95707.53;5009668;28;20038;-79
2021/11/04 00:06:37;;;;;;;3.55;2.65;;;;;;;9.37;67.53;95705.28;4993411;28;20026;-79
2021/11/04 00:09:03;;;;;;;3.75;2.40;;;;;;;9.34;68.14;95695.47;4977212;28;20472;-79
2021/11/04 00:11:28;;;;;;;4.47;2.72;;;;;;;9.35;67.97;95699.59;4973712;28;20026;-80
2021/11/04 00:13:54;;;;;;;3.20;2.42;;;;;;;9.34;67.39;95693.63;5000260;28;20041;-79
2021/11/04 00:16:19;;;;;;;3.90;2.50;;;;;;;9.37;67.16;95694.91;4993255;28;20033;-79
2021/11/04 00:18:45;;;;;;;3.15;2.58;;;;;;;9.37;67.05;95694.91;5004231;28;20034;-79
2021/11/04 00:21:10;;;;;;;4.47;3.22;;;;;;;9.40;67.04;95688.41;5001514;28;20065;-79
2021/11/04 00:23:35;;;;;;;4.35;3.00;;;;;;;9.34;67.00;95685.84;4989787;28;20033;-79
2021/11/04 00:26:01;;;;;;;4.28;2.92;;;;;;;9.27;67.41;95687.19;5001226;28;20088;-79
2021/11/04 00:28:26;;;;;;;3.90;3.08;;;;;;;9.29;66.98;95695.50;4989491;28;20523;-79
2021/11/04 00:30:52;;;;;;;4.53;2.95;;;;;;;9.24;67.07;95695.53;4998706;28;20100;-80
2021/11/04 00:33:17;;;;;;;4.35;2.90;;;;;;;9.28;67.47;95691.34;4958050;28;20030;-80
2021/11/04 00:35:43;;;;;;;3.80;2.70;;;;;;;9.28;67.22;95692.09;4980631;28;20041;-79
2021/11/04 00:38:09;;;;;;;3.47;2.75;;;;;;;9.28;67.04;95691.34;4968453;28;20026;-79
2021/11/04 00:40:35;;;;;;;3.20;2.40;;;;;;;9.23;66.98;95688.78;4973957;28;20540;-79
2021/11/04 00:43:00;;;;;;;4.53;2.83;;;;;;;9.21;66.94;95683.88;4973760;28;20084;-79
2021/11/04 00:45:26;;;;;;;4.45;2.78;;;;;;;9.18;66.95;95682.59;4984187;28;20073;-79
2021/11/04 00:47:52;;;;;;;3.53;2.58;;;;;;;9.15;67.22;95685.72;4984237;28;20037;-79
2021/11/04 00:50:18;;;;;;;4.85;3.42;;;;;;;9.15;67.61;95698.72;4976707;28;20486;-78
2021/11/04 00:52:44;;;;;;;4.65;2.63;;;;;;;9.18;67.40;95700.78;4990671;28;20484;-79
2021/11/04 00:55:10;;;;;;;4.28;2.97;;;;;;;9.19;67.22;95704.13;4974298;28;20039;-79
2021/11/04 00:57:36;;;;;;;4.10;2.78;;;;;;;9.17;67.72;95704.41;4973562;28;20022;-79
2021/11/04 01:00:03;;;;;;;5.18;3.28;;;;;;;9.15;67.61;95703.91;4999940;28;20030;-79
2021/11/04 01:02:29;;;;;;;4.88;3.55;;;;;;;9.18;67.75;95692.97;4977232;28;20427;-79
2021/11/04 01:04:54;;;;;;;4.75;3.00;;;;;;;9.13;67.99;95690.44;4987538;28;20113;-79
2021/11/04 01:07:20;;;;;;;5.65;3.53;;;;;;;9.15;68.28;95688.31;4974833;28;20657;-79
2021/11/04 01:09:45;;;;;;;3.72;2.83;;;;;;;9.18;68.09;95692.19;4957364;28;20030;-79
2021/11/04 01:12:11;;;;;;;6.40;3.95;;;;;;;9.18;67.90;95692.97;4973593;28;20045;-79
2021/11/04 01:14:36;;;;;;;5.00;3.40;;;;;;;9.12;68.32;95698.47;4973610;28;20033;-79
2021/11/04 01:17:02;;;;;;;3.95;2.97;;;;;;;9.13;67.99;95710.41;4957831;28;20476;-79
2021/11/04 01:19:27;;;;;;;4.40;2.90;;;;;;;9.12;68.12;95704.44;4984861;28;20044;-79
2021/11/04 01:21:53;;;;;;;6.28;3.55;;;;;;;9.11;68.20;95710.66;4976679;28;20128;-79
2021/11/04 01:24:19;;;;;;;4.15;2.67;;;;;;;9.13;68.01;95720.78;4991171;28;20033;-79
2021/11/04 01:26:44;;;;;;;5.82;3.45;;;;;;;9.07;68.29;95721.88;4973688;28;20042;-79
2021/11/04 01:29:09;;;;;;;5.57;3.10;;;;;;;9.07;68.41;95727.06;4989500;28;20585;-79
2021/11/04 01:31:35;;;;;;;5.07;3.03;;;;;;;9.06;68.23;95730.72;4989515;28;20085;-79
2021/11/04 01:34:00;;;;;;;6.07;3.83;;;;;;;9.06;68.30;95736.66;4973647;28;20381;-79
2021/11/04 01:36:25;;;;;;;5.95;3.20;;;;;;;9.07;68.21;95746.03;4989994;28;20061;-79
2021/11/04 01:38:51;;;;;;;4.80;3.40;;;;;;;9.08;68.40;95746.78;4988767;28;20034;-79
2021/11/04 01:41:17;;;;;;;5.07;3.05;;;;;;;9.05;68.74;95735.13;4989643;28;20392;-79
2021/11/04 01:43:43;;;;;;;5.07;3.38;;;;;;;9.01;68.01;95736.69;4957624;28;20034;-79
2021/11/04 01:46:09;;;;;;;6.45;3.70;;;;;;;8.97;68.84;95735.69;4973998;28;20064;-79
2021/11/04 01:48:34;;;;;;;5.00;3.33;;;;;;;9.01;68.53;95734.09;4976435;28;20496;-80
2021/11/04 01:51:00;;;;;;;5.85;3.75;;;;;;;9.02;68.76;95740.84;4992228;28;20030;-79
2021/11/04 01:53:25;;;;;;;5.47;3.50;;;;;;;9.05;68.58;95742.13;4992388;28;20037;-79
2021/11/04 01:55:50;;;;;;;5.40;3.63;;;;;;;9.04;68.65;95743.94;4992583;28;20041;-79
2021/11/04 01:58:16;;;;;;;7.13;3.25;;;;;;;9.05;68.50;95739.53;4992128;28;20050;-79
2021/11/04 02:00:42;;;;;;;5.18;3.50;;;;;;;9.07;68.64;95735.63;4992365;28;20030;-79
2021/11/04 02:03:32;;;;;;;5.82;3.53;;;;;;;8.88;68.89;95738.09;4992207;28;20037;-79
2021/11/04 02:06:09;;;;;;;5.68;3.40;;;;;;;8.95;68.41;95735.19;5010394;28;20605;-80
2021/11/04 02:08:38;;;;;;;5.13;3.53;;;;;;;9.02;68.23;95727.88;4992099;28;20068;-79
2021/11/04 02:11:35;;;;;;;4.85;3.65;;;;;;;8.85;68.64;95730.84;4975810;28;20121;-79
2021/11/04 02:14:09;;;;;;;7.85;3.90;;;;;;;8.92;68.89;95735.72;4956861;28;20060;-79
2021/11/04 02:16:35;;;;;;;6.40;4.15;;;;;;;9.07;68.90;95733.03;4974902;28;20041;-79
2021/11/04 02:19:07;;;;;;;5.70;3.90;;;;;;;8.96;68.55;95727.13;5007562;28;20033;-79
2021/11/04 02:21:47;;;;;;;7.25;4.10;;;;;;;8.91;68.31;95727.19;4975788;28;20064;-79
2021/11/04 02:24:34;;;;;;;6.35;3.90;;;;;;;9.08;68.05;95720.81;4976061;28;20040;-80
2021/11/04 02:27:01;;;;;;;6.28;3.88;;;;;;;9.04;68.02;95718.00;4988988;28;20042;-79
2021/11/04 02:29:27;;;;;;;7.70;4.40;;;;;;;9.07;67.98;95716.69;4972205;28;20026;-79
2021/11/04 02:31:52;;;;;;;6.82;4.50;;;;;;;9.07;68.13;95717.47;4972371;28;20042;-80
2021/11/04 02:34:18;;;;;;;6.93;4.80;;;;;;;9.08;68.10;95713.81;4972331;28;20030;-79
2021/11/04 02:36:45;;;;;;;7.72;4.28;;;;;;;8.84;69.01;95710.34;4971912;28;20089;-79
2021/11/04 02:39:11;;;;;;;7.50;4.32;;;;;;;8.69;69.55;95706.78;4955683;28;20113;-79
2021/11/04 02:41:36;;;;;;;8.88;5.32;;;;;;;8.69;69.33;95711.97;4972508;28;20556;-79
2021/11/04 02:44:08;;;;;;;6.93;4.88;;;;;;;8.60;69.58;95709.19;4972769;28;20121;-79
2021/11/04 02:46:33;;;;;;;7.55;4.40;;;;;;;8.66;70.08;95707.31;4992678;28;20026;-79
2021/11/04 02:48:58;;;;;;;10.00;5.25;;;;;;;8.68;69.85;95710.41;4991437;28;20041;-79
2021/11/04 02:51:24;;;;;;;8.05;5.03;;;;;;;8.62;69.56;95701.13;5007922;28;20110;-79
2021/11/04 02:53:49;;;;;;;8.55;5.22;;;;;;;8.64;69.65;95706.81;4972078;28;20030;-79
2021/11/04 02:56:15;;;;;;;7.22;4.63;;;;;;;8.68;69.78;95707.81;4972051;28;20026;-79
2021/11/04 02:58:40;;;;;;;9.73;5.63;;;;;;;8.72;69.77;95705.47;4971279;28;20030;-79
2021/11/04 03:01:06;;;;;;;8.93;5.75;;;;;;;8.70;69.58;95713.50;4989122;28;20035;-79
2021/11/04 03:03:32;;;;;;;9.55;5.90;;;;;;;8.71;69.80;95717.69;4955886;28;20089;-79
2021/11/04 03:05:58;;;;;;;10.27;6.10;;;;;;;8.71;70.16;95720.28;4981402;28;20077;-79
2021/11/04 03:08:25;;;;;;;8.82;5.65;;;;;;;8.70;70.17;95726.50;4974769;28;20126;-79
2021/11/04 03:10:54;;;;;;;10.45;5.55;;;;;;;8.67;70.02;95732.25;4975354;28;20025;-79
2021/11/04 03:13:19;;;;;;;9.23;5.15;;;;;;;8.74;69.75;95750.88;4991436;28;20189;-80
2021/11/04 03:15:53;;;;;;;7.93;4.85;;;;;;;8.59;70.05;95753.53;4991264;28;20125;-79
2021/11/04 03:18:19;;;;;;;8.35;5.45;;;;;;;8.62;70.27;95753.00;4973517;28;20048;-79
2021/11/04 03:20:44;;;;;;;10.50;6.03;;;;;;;8.63;70.58;95764.94;4990600;28;20022;-79
2021/11/04 03:23:10;;;;;;;10.48;5.97;;;;;;;8.66;70.34;95769.59;4991161;28;20218;-80
2021/11/04 03:25:36;;;;;;;11.05;6.38;;;;;;;8.69;70.87;95771.66;4991308;28;20048;-80
2021/11/04 03:28:02;;;;;;;9.68;5.45;;;;;;;8.70;70.15;95775.03;4993847;28;20034;-79
2021/11/04 03:30:34;;;;;;;8.60;4.97;;;;;;;8.71;70.38;95777.34;4995225;28;20034;-80
2021/11/04 03:32:59;;;;;;;9.65;6.25;;;;;;;8.86;69.85;95783.50;4995233;28;20036;-80
2021/11/04 03:35:29;;;;;;;8.27;5.18;;;;;;;8.72;69.42;95778.13;4978533;28;20109;-80
2021/11/04 03:37:55;;;;;;;9.18;5.50;;;;;;;8.79;69.88;95784.59;4994349;28;20084;-79
2021/11/04 03:40:22;;;;;;;9.60;5.03;;;;;;;8.87;69.67;95779.88;4994380;28;20080;-80
2021/11/04 03:42:49;;;;;;;10.13;5.93;;;;;;;8.84;69.28;95781.19;4978498;28;20036;-79
2021/11/04 03:45:18;;;;;;;8.48;5.18;;;;;;;8.70;69.71;95780.97;4975169;28;20622;-79
2021/11/04 03:47:44;;;;;;;11.20;5.80;;;;;;;8.76;69.87;95784.34;4959405;28;20081;-79
2021/11/04 03:50:10;;;;;;;9.05;5.50;;;;;;;8.76;69.71;95787.72;4943447;28;20388;-79
2021/11/04 03:52:39;;;;;;;10.85;5.53;;;;;;;8.72;69.66;95789.28;4959161;28;20062;-80
2021/11/04 03:55:05;;;;;;;10.93;6.32;;;;;;;8.78;69.25;95793.41;5011081;28;20392;-80
2021/11/04 03:57:31;;;;;;;9.73;5.72;;;;;;;8.82;69.50;95793.66;4994929;28;20847;-79
2021/11/04 03:59:56;;;;;;;10.18;6.38;;;;;;;8.79;69.32;95789.78;4994831;28;20093;-80
2021/11/04 04:02:22;;;;;;;11.75;7.05;;;;;;;8.86;69.03;95796.47;4978728;28;20033;-80
2021/11/04 04:04:52;;;;;;;10.45;6.38;;;;;;;8.76;69.15;95799.91;4994600;28;20030;-81
2021/11/04 04:07:18;;;;;;;9.15;6.00;;;;;;;8.87;69.25;95798.03;4977766;28;20548;-80
2021/11/04 04:09:43;;;;;;;11.25;6.07;;;;;;;8.84;69.01;95796.75;4994550;28;20034;-80
2021/11/04 04:12:09;;;;;;;12.00;6.25;;;;;;;8.84;69.17;95801.94;4962203;28;20103;-80
2021/11/04 04:14:34;;;;;;;10.60;6.28;;;;;;;8.81;69.01;95798.06;4978019;28;20076;-81
2021/11/04 04:16:59;;;;;;;8.95;5.25;;;;;;;8.85;69.11;95802.72;4994535;28;20109;-81
2021/11/04 04:19:25;;;;;;;7.90;4.72;;;;;;;8.82;68.91;95804.03;4977923;28;20061;-80
2021/11/04 04:21:50;;;;;;;7.35;4.50;;;;;;;8.79;69.30;95800.16;4978203;28;20044;-81
2021/11/04 04:24:16;;;;;;;7.68;4.82;;;;;;;8.79;69.39;95794.97;4978439;28;20045;-81
2021/11/04 04:26:41;;;;;;;7.40;4.75;;;;;;;8.85;69.17;95798.31;4974517;28;20034;-81
2021/11/04 04:29:06;;;;;;;7.43;4.78;;;;;;;8.83;69.29;95799.63;4974334;28;20105;-81
2021/11/04 04:31:32;;;;;;;6.32;3.95;;;;;;;8.84;69.66;95793.38;4974672;28;20031;-82
2021/11/04 04:33:57;;;;;;;6.80;4.40;;;;;;;8.80;69.36;95800.94;4974508;28;20119;-82
2021/11/04 04:36:22;;;;;;;7.35;4.28;;;;;;;8.88;69.28;95802.22;4974624;28;20041;-82
2021/11/04 04:38:48;;;;;;;6.60;3.97;;;;;;;8.83;69.41;95800.41;4972721;28;20583;-81
2021/11/04 04:41:13;;;;;;;6.43;4.07;;;;;;;8.87;69.78;95805.84;4958470;28;20050;-81
2021/11/04 04:43:39;;;;;;;7.05;4.38;;;;;;;8.80;69.75;95790.53;4974155;28;20113;-81
2021/11/04 04:46:04;;;;;;;7.07;4.10;;;;;;;8.81;69.81;95790.28;4989064;28;20435;-81
2021/11/04 04:48:29;;;;;;;7.40;4.20;;;;;;;8.81;69.79;95798.06;4992320;28;20045;-81
2021/11/04 04:50:55;;;;;;;9.02;4.55;;;;;;;8.86;69.84;95793.88;4977378;28;20026;-81
2021/11/04 04:53:20;;;;;;;8.50;5.28;;;;;;;8.81;69.98;95787.69;4971067;28;20090;-81
2021/11/04 04:55:45;;;;;;;6.90;4.25;;;;;;;8.85;69.62;95789.75;4973919;28;20026;-81
2021/11/04 04:58:11;;;;;;;6.35;4.43;;;;;;;8.88;69.98;95791.81;4990014;28;20034;-81
2021/11/04 05:00:36;;;;;;;8.27;5.38;;;;;;;8.88;69.53;95799.63;4990144;28;20116;-81
2021/11/04 05:03:03;;;;;;;10.02;6.15;;;;;;;8.63;71.28;95796.84;4990235;28;20112;-81
2021/11/04 05:05:29;;;;;;;10.85;5.85;;;;;;;8.86;70.60;95796.47;4974747;28;20104;-81
2021/11/04 05:07:54;;;;;;;11.98;6.25;;;;;;;8.76;70.62;95795.50;4976009;28;20715;-81
2021/11/04 05:10:20;;;;;;;17.77;9.68;;;;;;;8.78;70.94;95798.59;4960615;28;20033;-81
2021/11/04 05:12:45;;;;;;;17.15;10.52;;;;;;;8.88;70.45;95802.22;4976824;28;20042;-81
2021/11/04 05:15:11;;;;;;;16.00;9.00;;;;;;;8.86;70.92;95801.69;4976525;28;20037;-81
2021/11/04 05:17:37;;;;;;;14.95;8.65;;;;;;;8.91;70.75;95804.25;4976561;28;20045;-81
2021/11/04 05:20:06;;;;;;;15.15;8.98;;;;;;;8.82;70.80;95809.22;4958370;28;20061;-81
2021/11/04 05:22:32;;;;;;;13.50;8.18;;;;;;;8.97;70.37;95805.78;4992724;28;20495;-81
2021/11/04 05:24:58;;;;;;;14.40;8.70;;;;;;;8.96;70.22;95812.00;4960780;28;20105;-81
2021/11/04 05:27:23;;;;;;;14.93;8.95;;;;;;;8.85;70.50;95813.13;4991518;28;20100;-81
2021/11/04 05:29:48;;;;;;;14.05;8.75;;;;;;;8.92;70.50;95814.38;4992699;28;20064;-81
2021/11/04 05:32:17;;;;;;;15.00;8.70;;;;;;;8.99;70.55;95827.06;4992641;28;20029;-81
2021/11/04 05:34:42;;;;;;;16.17;9.18;;;;;;;9.03;70.52;95827.28;5010026;28;20112;-81
2021/11/04 05:37:08;;;;;;;14.57;8.35;;;;;;;9.10;70.36;95823.38;4992347;28;20563;-80
2021/11/04 05:39:38;;;;;;;13.57;8.48;;;;;;;9.02;70.20;95825.75;5008204;28;20025;-81
2021/11/04 05:42:04;;;;;;;15.68;8.93;;;;;;;9.10;69.71;95833.78;4992839;28;20117;-80
2021/11/04 05:44:30;;;;;;;12.23;7.35;;;;;;;9.02;70.51;95839.50;4988333;28;20120;-80
2021/11/04 05:46:56;;;;;;;15.52;9.10;;;;;;;9.07;70.23;95842.09;4989280;28;20049;-81
2021/11/04 05:49:21;;;;;;;15.02;8.85;;;;;;;9.08;70.33;95846.25;4988787;28;20049;-81
2021/11/04 05:51:47;;;;;;;11.45;8.02;;;;;;;9.15;70.20;95848.53;4988997;28;20791;-81
2021/11/04 05:54:12;;;;;;;16.10;9.13;;;;;;;9.09;69.53;95849.59;4972449;28;20031;-80
2021/11/04 05:56:38;;;;;;;19.92;9.32;;;;;;;9.19;69.97;95854.75;4972786;28;20038;-81
2021/11/04 05:59:03;;;;;;;15.82;7.88;;;;;;;9.12;70.03;95857.63;4972439;28;20038;-80
2021/11/04 06:01:28;;;;;;;15.38;8.88;;;;;;;9.14;70.26;95854.78;4971953;28;20085;-80
2021/11/04 06:03:54;;;;;;;12.10;7.43;;;;;;;9.17;69.73;95865.41;4955998;28;20030;-80
2021/11/04 06:06:20;;;;;;;14.45;8.13;;;;;;;9.22;69.96;95867.22;4988025;28;20034;-80
2021/11/04 06:08:45;;;;;;;14.57;7.95;;;;;;;9.16;70.18;95871.63;4971241;28;20082;-80
2021/11/04 06:11:11;;;;;;;16.17;7.45;;;;;;;9.22;70.01;95869.00;4971730;28;20084;-80
2021/11/04 06:13:36;;;;;;;13.50;7.28;;;;;;;9.13;70.29;95877.38;4955560;28;20036;-80
2021/11/04 06:16:02;;;;;;;13.27;7.50;;;;;;;8.86;70.59;95884.72;4955726;28;20038;-81
2021/11/04 06:18:27;;;;;;;11.90;7.20;;;;;;;9.03;70.16;95880.03;4971397;28;20108;-80
2021/11/04 06:20:52;;;;;;;12.00;7.65;;;;;;;9.10;69.90;95877.09;4971298;28;20434;-80
2021/11/04 06:23:18;;;;;;;12.90;7.35;;;;;;;9.11;69.63;95887.22;4971569;28;20035;-80
2021/11/04 06:25:43;;;;;;;14.45;8.38;;;;;;;9.08;70.15;95885.19;4977615;28;20061;-79
2021/11/04 06:28:08;;;;;;;14.75;8.32;;;;;;;9.05;70.33;95890.91;4958385;28;20029;-80
2021/11/04 06:30:34;;;;;;;14.32;7.35;;;;;;;9.11;69.81;95900.22;5004555;28;20042;-80
2021/11/04 06:32:59;;;;;;;14.63;8.32;;;;;;;9.17;69.60;95893.97;4971059;28;20037;-80
2021/11/04 06:35:24;;;;;;;12.43;7.80;;;;;;;9.18;69.83;95902.53;4980209;28;20027;-80
2021/11/04 06:37:50;;;;;;;11.85;7.57;;;;;;;9.13;69.65;95913.75;4956402;28;20546;-80
2021/11/04 06:40:24;;;;;;;14.05;7.95;;;;;;;9.13;69.73;95924.13;4991386;28;20053;-81
2021/11/04 06:42:49;;;;;;;13.57;8.00;;;;;;;9.19;69.34;95914.47;4959464;28;20021;-82
2021/11/04 06:45:18;;;;;;;16.35;9.27;;;;;;;9.13;69.68;95924.13;4980732;28;20035;-80
2021/11/04 06:47:50;;;;;;;13.32;8.38;;;;;;;9.08;69.42;95928.53;4971372;28;20149;-80
2021/11/04 06:50:30;;;;;;;15.25;8.85;;;;;;;8.95;69.83;95932.47;4983113;28;20736;-80
2021/11/04 06:53:07;;;;;;;14.77;8.43;;;;;;;8.92;69.38;95935.59;4989839;28;20030;-80
2021/11/04 06:55:35;;;;;;;13.50;7.97;;;;;;;9.09;69.37;95933.47;4975215;28;20095;-80
2021/11/04 06:58:03;;;;;;;15.10;9.20;;;;;;;9.10;69.84;95945.41;4990861;28;20114;-80
2021/11/04 07:00:30;;;;;;;19.13;11.05;;;;;;;9.10;69.13;95950.59;4991912;28;20029;-79
2021/11/04 07:02:59;;;;;;;30.33;13.85;;;;;;;9.11;69.11;95961.75;4974558;28;20034;-80
2021/11/04 07:05:25;;;;;;;20.77;10.45;;;;;;;9.17;69.07;95966.69;4991401;28;20139;-79
2021/11/04 07:07:53;;;;;;;17.33;9.60;;;;;;;9.17;68.90;95960.72;4972711;28;20026;-80
2021/11/04 07:10:19;;;;;;;14.18;8.48;;;;;;;9.14;69.22;95977.59;4974969;28;20034;-80
2021/11/04 07:12:47;;;;;;;17.95;10.77;;;;;;;9.07;69.30;95974.50;4991032;28;20041;-80
2021/11/04 07:15:14;;;;;;;15.07;9.50;;;;;;;9.03;69.04;95981.28;4974955;28;20484;-80
2021/11/04 07:17:41;;;;;;;15.43;9.43;;;;;;;8.96;69.23;95985.94;4974871;28;20069;-80
2021/11/04 07:20:07;;;;;;;17.73;10.93;;;;;;;9.08;69.22;95990.84;4973747;28;20034;-79
2021/11/04 07:22:43;;;;;;;16.00;10.77;;;;;;;8.96;68.84;95991.94;4954742;28;20057;-80
2021/11/04 07:25:14;;;;;;;18.05;10.07;;;;;;;8.98;69.75;95994.25;5008049;28;20109;-79
2021/11/04 07:27:59;;;;;;;21.70;11.07;;;;;;;8.96;69.34;96006.72;4985284;28;20021;-80
2021/11/04 07:30:27;;;;;;;16.98;9.60;;;;;;;9.09;69.16;96002.81;4971234;28;20121;-80
2021/11/04 07:33:01;;;;;;;18.95;11.18;;;;;;;8.99;69.23;96011.38;4939441;28;20038;-79
2021/11/04 07:35:34;;;;;;;21.90;13.70;;;;;;;9.02;69.60;96010.88;4971773;28;20425;-80
2021/11/04 07:38:00;;;;;;;18.42;10.20;;;;;;;9.15;68.69;96015.50;4954926;28;20277;-80
2021/11/04 07:40:27;;;;;;;37.17;23.92;;;;;;;9.02;69.31;96008.25;4971705;28;20030;-80
2021/11/04 07:42:53;;;;;;;20.83;12.70;;;;;;;9.11;69.29;96019.66;4955904;28;20034;-79
2021/11/04 07:45:18;;;;;;;25.48;13.60;;;;;;;9.14;69.64;96024.34;4999311;28;20492;-80
2021/11/04 07:47:45;;;;;;;28.42;17.60;;;;;;;9.11;69.37;96017.06;4990736;28;20069;-79
2021/11/04 07:50:13;;;;;;;19.35;10.75;;;;;;;9.18;68.73;96030.56;4974566;28;20037;-80
2021/11/04 07:52:39;;;;;;;25.65;15.15;;;;;;;9.20;68.96;96032.88;5006939;28;20044;-79
2021/11/04 07:55:06;;;;;;;16.63;9.25;;;;;;;9.15;68.51;96046.69;4991254;28;20034;-79
2021/11/04 07:57:33;;;;;;;17.55;10.65;;;;;;;9.14;69.09;96045.09;5006862;28;20091;-80
2021/11/04 08:00:02;;;;;;;16.02;9.05;;;;;;;9.18;68.50;96048.75;4991136;28;20038;-79
2021/11/04 08:02:28;;;;;;;23.40;14.00;;;;;;;9.22;68.20;96048.22;4990632;28;20550;-79
2021/11/04 08:04:53;;;;;;;19.90;11.10;;;;;;;9.10;68.75;96057.06;4974475;28;20026;-79
2021/11/04 08:07:19;;;;;;;20.15;11.15;;;;;;;9.13;69.39;96056.56;4990618;28;20361;-80
2021/11/04 08:09:44;;;;;;;19.38;10.38;;;;;;;9.11;69.23;96056.00;4990403;28;20026;-81
2021/11/04 08:12:09;;;;;;;16.25;10.15;;;;;;;9.09;68.44;96063.28;4988891;28;20030;-81
2021/11/04 08:14:35;;;;;;;17.20;9.63;;;;;;;9.13;69.49;96056.56;4987372;28;20034;-82
2021/11/04 08:17:00;;;;;;;16.30;8.85;;;;;;;9.14;69.22;96068.47;4997382;28;20034;-82
2021/11/04 08:19:25;;;;;;;17.58;10.23;;;;;;;9.12;68.82;96072.41;4975761;28;20034;-82
2021/11/04 08:21:52;;;;;;;17.63;10.65;;;;;;;9.01;69.41;96071.59;4993616;28;20087;-82
2021/11/04 08:24:18;;;;;;;16.23;10.05;;;;;;;9.06;69.19;96074.19;4977274;28;20053;-82
2021/11/04 08:26:44;;;;;;;16.92;9.85;;;;;;;8.98;69.14;96077.34;4976896;28;20038;-82
2021/11/04 08:29:10;;;;;;;18.73;10.82;;;;;;;9.05;69.09;96077.84;5009543;28;20030;-82
2021/11/04 08:31:35;;;;;;;19.10;11.00;;;;;;;9.08;69.40;96081.72;4993560;28;20030;-83
2021/11/04 08:34:01;;;;;;;18.15;10.82;;;;;;;9.11;69.33;96083.81;4977514;28;20061;-81
2021/11/04 08:36:26;;;;;;;19.02;10.07;;;;;;;9.09;69.04;96078.09;4993642;28;20045;-82
2021/11/04 08:38:51;;;;;;;18.75;10.63;;;;;;;9.10;68.90;96090.84;4992672;28;20686;-82
2021/11/04 08:41:17;;;;;;;34.85;19.98;;;;;;;9.08;69.20;96090.31;5010776;28;20562;-82
2021/11/04 08:43:42;;;;;;;22.08;12.80;;;;;;;9.11;69.59;96094.19;4992415;28;20030;-82
2021/11/04 08:46:08;;;;;;;26.58;14.90;;;;;;;9.07;69.05;96095.78;4981972;28;20042;-82
2021/11/04 08:48:34;;;;;;;23.88;12.77;;;;;;;9.06;69.02;96096.78;4970991;28;20484;-82
2021/11/04 08:51:00;;;;;;;23.27;13.90;;;;;;;9.09;68.71;96109.25;4979176;28;20117;-81
2021/11/04 08:53:25;;;;;;;21.30;14.20;;;;;;;9.08;69.40;96110.28;4979817;28;20440;-83
2021/11/04 08:55:51;;;;;;;25.30;14.85;;;;;;;9.07;68.89;96109.53;5008310;28;20651;-81
2021/11/04 08:58:16;;;;;;;23.10;14.38;;;;;;;9.04;69.60;96112.63;5008445;28;20057;-82
2021/11/04 09:00:42;;;;;;;27.33;15.35;;;;;;;9.08;69.38;96113.69;4992562;28;20026;-82
2021/11/04 09:03:08;;;;;;;21.45;13.57;;;;;;;9.09;69.33;96115.22;4992240;28;20491;-82
2021/11/04 09:05:34;;;;;;;27.00;15.10;;;;;;;9.12;69.10;96124.34;4976211;28;20104;-82
2021/11/04 09:08:04;;;;;;;25.88;14.68;;;;;;;9.04;69.22;96130.81;4989586;28;20381;-82
2021/11/04 09:10:30;;;;;;;24.58;14.25;;;;;;;9.05;69.10;96128.97;4975916;28;20038;-82
2021/11/04 09:12:55;;;;;;;22.38;12.95;;;;;;;9.05;68.73;96134.97;4975787;28;20030;-81
2021/11/04 09:15:21;;;;;;;23.85;12.10;;;;;;;9.08;69.09;96137.06;4991517;28;20034;-82
2021/11/04 09:17:46;;;;;;;22.60;12.38;;;;;;;9.04;68.75;96135.22;5007336;28;20034;-82
2021/11/04 09:20:14;;;;;;;21.20;12.77;;;;;;;8.99;68.85;96144.56;4991748;28;20068;-82
2021/11/04 09:22:40;;;;;;;21.55;11.27;;;;;;;9.04;69.10;96138.59;4990391;28;20033;-82
2021/11/04 09:25:05;;;;;;;22.05;11.73;;;;;;;8.95;68.90;96151.31;4989407;28;20021;-82
2021/11/04 09:27:31;;;;;;;23.45;12.35;;;;;;;9.08;68.81;96155.22;4957176;28;20061;-82
2021/11/04 09:29:58;;;;;;;18.23;10.68;;;;;;;8.95;68.92;96156.50;4989047;28;20030;-82
2021/11/04 09:32:24;;;;;;;22.40;11.13;;;;;;;9.07;69.04;96160.69;4972142;28;20038;-82
2021/11/04 09:34:50;;;;;;;20.48;12.32;;;;;;;9.07;68.30;96158.84;4988438;28;20034;-81
2021/11/04 09:37:17;;;;;;;23.63;12.27;;;;;;;9.08;67.99;96164.81;4971725;28;20537;-82
2021/11/04 09:39:43;;;;;;;21.63;11.68;;;;;;;9.14;68.70;96177.56;4972128;28;20034;-81
2021/11/04 09:42:08;;;;;;;19.30;10.75;;;;;;;9.09;68.49;96176.78;4975421;28;20019;-82
2021/11/04 09:44:33;;;;;;;20.40;10.95;;;;;;;9.21;68.68;96173.94;4983246;28;20126;-80
2021/11/04 09:46:59;;;;;;;23.08;12.07;;;;;;;9.03;68.71;96173.41;4987855;28;20412;-81
2021/11/04 09:49:27;;;;;;;22.58;13.27;;;;;;;9.07;68.42;96181.47;4971837;28;20491;-80
2021/11/04 09:51:54;;;;;;;18.33;11.00;;;;;;;9.16;68.25;96180.66;4972432;28;20077;-79
2021/11/04 09:54:20;;;;;;;19.95;11.82;;;;;;;9.29;68.73;96189.78;5006569;28;20396;-79
2021/11/04 09:56:45;;;;;;;27.10;15.20;;;;;;;9.32;68.54;96183.25;4990604;28;20042;-80
2021/11/04 09:59:11;;;;;;;21.38;11.68;;;;;;;9.34;67.50;96191.59;4975150;28;20030;-79
2021/11/04 10:01:44;;;;;;;25.00;14.80;;;;;;;9.21;67.89;96192.09;5003672;28;20038;-79
2021/11/04 10:04:09;;;;;;;27.92;16.25;;;;;;;9.41;68.02;96199.91;4991198;28;20034;-79
2021/11/04 10:06:37;;;;;;;25.45;15.10;;;;;;;9.45;67.48;96208.72;4988028;28;20041;-80
2021/11/04 10:09:11;;;;;;;19.45;11.02;;;;;;;9.30;68.20;96206.91;4998210;28;20074;-80
2021/11/04 10:11:41;;;;;;;19.05;11.57;;;;;;;9.35;67.55;96221.72;4955146;28;20496;-79
2021/11/04 10:14:10;;;;;;;20.17;11.40;;;;;;;9.49;67.82;96212.38;4971821;28;20069;-80
2021/11/04 10:16:36;;;;;;;20.48;11.15;;;;;;;9.49;68.19;96217.56;4971452;28;20026;-80
2021/11/04 10:19:09;;;;;;;20.00;12.02;;;;;;;9.45;67.98;96221.72;4970917;28;20057;-79
2021/11/04 10:21:38;;;;;;;19.10;11.43;;;;;;;9.49;68.45;96216.78;4987082;28;20037;-79
2021/11/04 10:24:04;;;;;;;20.38;10.32;;;;;;;9.55;67.70;96226.91;4971219;28;20045;-81
2021/11/04 10:26:34;;;;;;;17.25;10.30;;;;;;;9.54;67.77;96214.97;4978522;28;20033;-79
2021/11/04 10:29:04;;;;;;;19.27;10.82;;;;;;;9.59;67.93;96218.59;4990359;28;20030;-79
2021/11/04 10:31:38;;;;;;;22.20;12.55;;;;;;;9.46;68.08;96220.69;4990706;28;20546;-80
2021/11/04 10:34:05;;;;;;;21.90;11.90;;;;;;;9.54;68.24;96227.97;4990937;28;20026;-79
2021/11/04 10:36:31;;;;;;;22.33;11.20;;;;;;;9.65;67.02;96235.75;4990244;28;20048;-79
2021/11/04 10:38:58;;;;;;;21.88;11.43;;;;;;;9.60;67.60;96238.34;4987096;28;20380;-79
2021/11/04 10:41:28;;;;;;;23.05;12.70;;;;;;;9.65;67.31;96243.56;4987245;28;20120;-79
2021/11/04 10:43:56;;;;;;;24.38;12.75;;;;;;;9.67;67.74;96249.28;4988590;28;20137;-79
2021/11/04 10:46:22;;;;;;;21.80;11.45;;;;;;;9.72;68.06;96251.88;4972537;28;20054;-79
2021/11/04 10:48:55;;;;;;;23.90;12.43;;;;;;;9.66;68.46;96247.69;4976207;28;20057;-80
2021/11/04 10:51:21;;;;;;;25.77;13.15;;;;;;;9.77;67.49;96244.06;4970845;28;20558;-79
2021/11/04 10:53:58;;;;;;;22.02;12.63;;;;;;;9.67;67.82;96255.22;4970797;28;20038;-79
2021/11/04 10:56:24;;;;;;;22.55;11.73;;;;;;;9.84;67.61;96254.97;4970581;28;20030;-78
2021/11/04 10:58:57;;;;;;;20.88;11.02;;;;;;;9.81;67.80;96258.09;4970153;28;20532;-79
2021/11/04 11:01:44;;;;;;;20.45;12.18;;;;;;;9.69;68.45;96270.56;4971214;28;20033;-79
2021/11/04 11:04:32;;;;;;;23.02;13.25;;;;;;;9.64;68.73;96267.97;4970924;28;20026;-80
2021/11/04 11:06:58;;;;;;;21.38;12.43;;;;;;;9.89;67.89;96264.59;4983309;28;20101;-79
2021/11/04 11:09:33;;;;;;;21.80;12.48;;;;;;;9.73;67.22;96264.59;4987578;28;20113;-80
2021/11/04 11:12:05;;;;;;;20.98;12.32;;;;;;;9.50;67.17;96263.28;4974311;28;20027;-79
2021/11/04 11:14:38;;;;;;;19.30;11.57;;;;;;;9.88;67.16;96276.03;4975074;28;20081;-79
2021/11/04 11:17:05;;;;;;;21.10;10.93;;;;;;;9.94;67.24;96275.00;4990185;28;20060;-78
2021/11/04 11:19:42;;;;;;;22.55;11.70;;;;;;;9.95;67.67;96279.13;4986677;28;20046;-79
2021/11/04 11:22:08;;;;;;;19.63;10.13;;;;;;;9.88;67.33;96283.81;4981874;28;20570;-80
2021/11/04 11:24:40;;;;;;;19.70;11.27;;;;;;;9.94;66.87;96280.97;4989275;28;20041;-79
2021/11/04 11:27:16;;;;;;;18.83;10.73;;;;;;;9.79;67.47;96288.75;5001245;28;20026;-80
2021/11/04 11:29:44;;;;;;;16.42;10.77;;;;;;;10.06;67.49;96285.13;4980701;28;20109;-78
2021/11/04 11:32:36;;;;;;;19.35;11.02;;;;;;;9.89;66.90;96291.38;4988874;28;20044;-79
2021/11/04 11:35:29;;;;;;;19.75;10.85;;;;;;;10.12;66.99;96299.66;4948974;28;20043;-78